createdAt,value
2022-07-28T00:00:11.542Z,7.65
2022-07-28T00:02:38.667Z,7.07
2022-07-28T00:05:06.644Z,7.97
2022-07-28T00:07:34.561Z,7.95
2022-07-28T00:10:01.582Z,8.20
2022-07-28T00:12:30.639Z,7.20
2022-07-28T00:14:57.704Z,8.57
2022-07-28T00:17:25.317Z,7.85
2022-07-28T00:19:53.008Z,7.70
2022-07-28T00:22:20.264Z,7.72
2022-07-28T00:24:47.240Z,8.18
2022-07-28T00:27:19.142Z,6.95
2022-07-28T00:29:50.300Z,7.65
2022-07-28T00:32:19.350Z,7.93
2022-07-28T00:34:47.082Z,7.22
2022-07-28T00:37:14.822Z,8.00
2022-07-28T00:39:43.095Z,8.20
2022-07-28T00:42:10.607Z,8.98
2022-07-28T00:44:41.892Z,8.95
2022-07-28T00:47:09.490Z,8.20
2022-07-28T00:49:36.563Z,8.05
2022-07-28T00:52:04.762Z,9.23
2022-07-28T00:54:33.510Z,8.60
2022-07-28T00:57:00.494Z,8.40
2022-07-28T00:59:27.446Z,8.88
2022-07-28T01:01:56.007Z,9.10
2022-07-28T01:04:24.686Z,9.35
2022-07-28T01:07:01.664Z,9.65
2022-07-28T01:09:50.258Z,9.70
2022-07-28T01:12:32.944Z,10.38
2022-07-28T01:15:18.588Z,10.27
2022-07-28T01:17:54.340Z,8.88
2022-07-28T01:20:34.233Z,10.70
2022-07-28T01:23:13.088Z,10.30
2022-07-28T01:26:35.634Z,11.13
2022-07-28T01:29:40.638Z,10.10
2022-07-28T01:32:20.176Z,11.15
2022-07-28T01:34:57.284Z,10.18
2022-07-28T01:37:28.768Z,11.05
2022-07-28T01:40:03.302Z,11.40
2022-07-28T01:42:37.257Z,11.52
2022-07-28T01:45:07.352Z,11.07
2022-07-28T01:47:35.396Z,11.50
2022-07-28T01:50:06.641Z,11.55
2022-07-28T01:52:36.890Z,10.07
2022-07-28T01:55:04.501Z,11.23
2022-07-28T01:57:33.179Z,11.32
2022-07-28T02:00:01.610Z,11.80
2022-07-28T02:02:32.981Z,10.93
2022-07-28T02:05:01.111Z,11.18
2022-07-28T02:07:31.957Z,10.70
2022-07-28T02:10:01.360Z,11.38
2022-07-28T02:12:29.779Z,10.43
2022-07-28T02:15:17.872Z,10.65
2022-07-28T02:17:47.403Z,11.30
2022-07-28T02:20:16.363Z,10.55
2022-07-28T02:22:44.557Z,10.60
2022-07-28T02:25:19.620Z,9.65
2022-07-28T02:27:58.939Z,12.10
2022-07-28T02:30:32.699Z,11.00
2022-07-28T02:33:58.388Z,10.13
2022-07-28T02:36:26.401Z,11.15
2022-07-28T02:38:55.334Z,11.00
2022-07-28T02:41:28.359Z,10.98
2022-07-28T02:44:12.035Z,10.32
2022-07-28T02:46:44.272Z,10.05
2022-07-28T02:49:23.981Z,10.65
2022-07-28T02:51:53.538Z,10.02
2022-07-28T02:54:21.611Z,11.15
2022-07-28T02:56:53.325Z,10.25
2022-07-28T02:59:23.470Z,11.10
2022-07-28T03:01:51.769Z,10.07
2022-07-28T03:04:42.399Z,11.05
2022-07-28T03:07:11.090Z,10.23
2022-07-28T03:09:40.900Z,11.20
2022-07-28T03:12:09.105Z,10.85
2022-07-28T03:14:36.551Z,10.43
2022-07-28T03:17:04.048Z,10.20
2022-07-28T03:19:31.292Z,10.45
2022-07-28T03:21:58.739Z,10.30
2022-07-28T03:24:32.589Z,10.98
2022-07-28T03:27:27.676Z,10.40
2022-07-28T03:30:04.024Z,10.05
2022-07-28T03:32:35.053Z,9.95
2022-07-28T03:35:02.358Z,10.73
2022-07-28T03:37:42.317Z,10.20
2022-07-28T03:40:12.300Z,10.38
2022-07-28T03:42:41.085Z,9.57
2022-07-28T03:45:08.832Z,10.07
2022-07-28T03:47:36.067Z,10.00
2022-07-28T03:50:03.080Z,10.35
2022-07-28T03:52:30.895Z,10.70
2022-07-28T03:54:58.254Z,10.23
2022-07-28T03:57:26.031Z,10.55
2022-07-28T03:59:53.078Z,10.70
2022-07-28T04:02:20.356Z,10.70
2022-07-28T04:04:47.510Z,11.15
2022-07-28T04:07:19.818Z,9.73
2022-07-28T04:09:47.511Z,10.23
2022-07-28T04:12:14.440Z,11.32
2022-07-28T04:14:42.438Z,9.63
2022-07-28T04:17:09.959Z,9.82
2022-07-28T04:19:37.018Z,10.10
2022-07-28T04:22:03.964Z,10.10
2022-07-28T04:24:31.241Z,10.73
2022-07-28T04:26:58.628Z,10.15
2022-07-28T04:29:27.270Z,10.32
2022-07-28T04:31:54.746Z,10.07
2022-07-28T04:34:21.839Z,9.75
2022-07-28T04:36:49.070Z,9.80
2022-07-28T04:39:16.354Z,9.70
2022-07-28T04:41:47.228Z,9.82
2022-07-28T04:44:18.671Z,10.25
2022-07-28T04:46:47.037Z,9.65
2022-07-28T04:49:14.133Z,10.30
2022-07-28T04:51:42.147Z,9.80
2022-07-28T04:54:11.801Z,10.05
2022-07-28T04:56:38.880Z,10.55
2022-07-28T04:59:06.247Z,10.48
2022-07-28T05:01:33.223Z,10.88
2022-07-28T05:04:00.339Z,10.32
2022-07-28T05:06:27.633Z,10.65
2022-07-28T05:08:54.602Z,9.60
2022-07-28T05:11:21.780Z,10.45
2022-07-28T05:13:51.171Z,10.07
2022-07-28T05:16:19.071Z,9.68
2022-07-28T05:18:46.155Z,9.98
2022-07-28T05:21:13.367Z,10.23
2022-07-28T05:23:47.743Z,10.00
2022-07-28T05:26:15.119Z,9.00
2022-07-28T05:28:42.185Z,9.20
2022-07-28T05:31:10.517Z,9.52
2022-07-28T05:33:38.405Z,10.60
2022-07-28T05:36:05.888Z,9.10
2022-07-28T05:38:34.015Z,9.25
2022-07-28T05:41:01.350Z,8.30
2022-07-28T05:43:28.423Z,8.10
2022-07-28T05:45:55.480Z,9.02
2022-07-28T05:48:23.007Z,6.63
2022-07-28T05:50:51.332Z,8.18
2022-07-28T05:53:19.555Z,7.32
2022-07-28T05:56:00.071Z,7.53
2022-07-28T05:58:29.940Z,7.13
2022-07-28T06:01:01.930Z,6.97
2022-07-28T06:03:32.228Z,8.38
2022-07-28T06:06:14.914Z,9.00
2022-07-28T06:08:44.252Z,9.23
2022-07-28T06:11:22.087Z,8.40
2022-07-28T06:13:51.472Z,8.95
2022-07-28T06:16:20.888Z,10.77
2022-07-28T06:18:48.262Z,9.48
2022-07-28T06:21:15.289Z,9.95
2022-07-28T06:23:42.759Z,9.10
2022-07-28T06:26:09.739Z,9.48
2022-07-28T06:28:37.125Z,10.35
2022-07-28T06:31:04.560Z,11.35
2022-07-28T06:33:31.520Z,10.82
2022-07-28T06:35:58.544Z,10.30
2022-07-28T06:38:25.910Z,9.68
2022-07-28T06:40:52.951Z,10.00
2022-07-28T06:43:20.059Z,10.20
2022-07-28T06:45:47.680Z,10.07
2022-07-28T06:48:15.138Z,10.15
2022-07-28T06:50:43.175Z,9.18
2022-07-28T06:53:11.032Z,9.40
2022-07-28T06:55:38.328Z,9.63
2022-07-28T06:58:08.333Z,8.63
2022-07-28T07:00:37.866Z,9.00
2022-07-28T07:03:09.583Z,8.18
2022-07-28T07:05:38.863Z,8.68
2022-07-28T07:08:06.751Z,8.13
2022-07-28T07:10:35.685Z,8.73
2022-07-28T07:13:03.463Z,8.57
2022-07-28T07:15:30.696Z,8.50
2022-07-28T07:18:00.124Z,8.98
2022-07-28T07:20:28.339Z,9.27
2022-07-28T07:22:58.002Z,8.80
2022-07-28T07:25:24.958Z,8.38
2022-07-28T07:27:52.604Z,8.77
2022-07-28T07:30:20.439Z,8.23
2022-07-28T07:32:47.566Z,8.27
2022-07-28T07:35:16.219Z,9.02
2022-07-28T07:37:43.357Z,7.05
2022-07-28T07:40:10.891Z,7.43
2022-07-28T07:42:41.388Z,7.72
2022-07-28T07:45:09.036Z,7.80
2022-07-28T07:47:36.459Z,7.28
2022-07-28T07:50:07.051Z,7.10
2022-07-28T07:52:35.525Z,7.20
2022-07-28T07:55:05.760Z,7.40
2022-07-28T07:57:33.095Z,7.13
2022-07-28T08:00:00.268Z,7.53
2022-07-28T08:02:29.880Z,7.78
2022-07-28T08:05:00.665Z,7.35
2022-07-28T08:07:28.786Z,8.07
2022-07-28T08:09:59.233Z,7.20
2022-07-28T08:12:26.458Z,6.95
2022-07-28T08:14:55.083Z,7.40
2022-07-28T08:17:25.943Z,7.03
2022-07-28T08:19:53.818Z,6.53
2022-07-28T08:22:20.804Z,6.60
2022-07-28T08:24:48.207Z,6.35
2022-07-28T08:27:15.199Z,6.32
2022-07-28T08:32:33.544Z,6.30
2022-07-28T08:35:30.449Z,6.95
2022-07-28T08:37:48.718Z,6.38
2022-07-28T08:40:18.631Z,6.47
2022-07-28T08:43:28.705Z,6.00
2022-07-28T08:46:06.626Z,5.85
2022-07-28T08:48:35.990Z,6.18
2022-07-28T08:51:09.753Z,7.15
2022-07-28T08:53:39.492Z,5.78
2022-07-28T08:56:08.476Z,5.38
2022-07-28T08:58:37.900Z,6.50
2022-07-28T09:01:18.657Z,4.72
2022-07-28T09:03:46.937Z,6.55
2022-07-28T09:06:14.463Z,7.18
2022-07-28T09:08:43.794Z,7.55
2022-07-28T09:11:10.834Z,6.75
2022-07-28T09:13:39.719Z,5.78
2022-07-28T09:16:07.482Z,5.45
2022-07-28T09:18:34.859Z,5.70
2022-07-28T09:21:01.796Z,5.40
2022-07-28T09:23:46.903Z,5.20
2022-07-28T09:26:14.848Z,5.80
2022-07-28T09:29:08.725Z,5.15
2022-07-28T09:31:55.586Z,5.05
2022-07-28T09:34:26.165Z,5.38
2022-07-28T09:36:53.450Z,5.95
2022-07-28T09:39:35.042Z,6.55
2022-07-28T09:42:02.907Z,5.85
2022-07-28T09:44:30.008Z,5.80
2022-07-28T09:46:57.652Z,6.80
2022-07-28T09:49:45.097Z,6.22
2022-07-28T09:52:12.152Z,6.50
2022-07-28T09:54:41.195Z,6.32
2022-07-28T09:57:11.981Z,5.90
2022-07-28T09:59:43.018Z,5.72
2022-07-28T10:02:13.824Z,5.28
2022-07-28T10:04:44.561Z,5.30
2022-07-28T10:07:17.282Z,5.25
2022-07-28T10:10:02.283Z,5.18
2022-07-28T10:12:32.540Z,5.72
2022-07-28T10:15:39.025Z,5.05
2022-07-28T10:18:13.770Z,6.20
2022-07-28T10:20:41.504Z,5.40
2022-07-28T10:23:13.678Z,5.65
2022-07-28T10:25:44.383Z,4.43
2022-07-28T10:28:16.487Z,5.60
2022-07-28T10:33:47.131Z,5.53
2022-07-28T10:36:17.786Z,5.25
2022-07-28T10:38:44.958Z,5.72
2022-07-28T10:41:17.706Z,4.45
2022-07-28T10:43:46.541Z,4.85
2022-07-28T10:46:17.128Z,4.38
2022-07-28T10:48:44.579Z,4.47
2022-07-28T10:51:13.917Z,4.35
2022-07-28T10:53:47.528Z,4.47
2022-07-28T10:56:24.500Z,5.25
2022-07-28T10:59:10.111Z,4.88
2022-07-28T11:01:50.154Z,5.38
2022-07-28T11:04:55.867Z,4.80
2022-07-28T11:07:22.836Z,4.80
2022-07-28T11:09:52.509Z,4.38
2022-07-28T11:12:46.527Z,5.43
2022-07-28T11:15:34.949Z,5.30
2022-07-28T11:18:20.138Z,4.28
2022-07-28T11:20:55.416Z,3.97
2022-07-28T11:23:37.682Z,4.60
2022-07-28T11:26:23.465Z,4.65
2022-07-28T11:29:11.025Z,4.88
2022-07-28T11:31:47.260Z,4.05
2022-07-28T11:34:19.549Z,3.80
2022-07-28T11:37:02.562Z,4.13
2022-07-28T11:39:41.253Z,4.15
2022-07-28T11:42:31.295Z,4.00
2022-07-28T11:45:18.464Z,3.90
2022-07-28T11:47:46.227Z,4.03
2022-07-28T11:50:14.683Z,3.65
2022-07-28T11:52:53.992Z,4.03
2022-07-28T11:55:21.661Z,4.05
2022-07-28T11:58:27.713Z,4.47
2022-07-28T12:01:21.006Z,4.70
2022-07-28T12:03:55.332Z,4.53
2022-07-28T12:06:36.709Z,4.65
2022-07-28T12:09:06.244Z,4.40
2022-07-28T12:11:35.846Z,7.30
2022-07-28T12:14:08.237Z,4.45
2022-07-28T12:16:38.385Z,4.05
2022-07-28T12:19:10.602Z,4.50
2022-07-28T12:21:47.511Z,4.53
2022-07-28T12:24:31.808Z,4.43
2022-07-28T12:27:00.754Z,4.93
2022-07-28T12:29:32.213Z,4.68
2022-07-28T12:32:10.146Z,4.63
2022-07-28T12:34:40.946Z,5.63
2022-07-28T12:37:10.233Z,4.05
2022-07-28T12:39:42.096Z,4.18
2022-07-28T12:42:12.015Z,4.57
2022-07-28T12:45:06.390Z,5.05
2022-07-28T12:47:34.705Z,4.88
2022-07-28T12:50:14.366Z,4.10
2022-07-28T12:52:51.277Z,5.10
2022-07-28T12:55:23.992Z,5.30
2022-07-28T12:57:53.043Z,5.30
2022-07-28T13:00:25.660Z,4.50
2022-07-28T13:02:56.508Z,3.83
2022-07-28T13:06:02.282Z,4.30
2022-07-28T13:08:46.643Z,4.40
2022-07-28T13:11:42.891Z,4.10
2022-07-28T13:14:04.605Z,4.25
2022-07-28T13:16:32.581Z,3.88
2022-07-28T13:19:04.616Z,4.20
2022-07-28T13:21:57.356Z,4.03
2022-07-28T13:24:26.288Z,3.95
2022-07-28T13:26:53.617Z,3.92
2022-07-28T13:29:45.310Z,3.90
2022-07-28T13:32:14.348Z,4.00
2022-07-28T13:34:42.510Z,4.35
2022-07-28T13:37:09.873Z,4.13
2022-07-28T13:39:37.764Z,4.15
2022-07-28T13:42:06.801Z,3.75
2022-07-28T13:44:39.243Z,3.25
2022-07-28T13:47:07.878Z,3.92
2022-07-28T13:49:37.896Z,3.78
2022-07-28T13:52:13.237Z,3.28
2022-07-28T13:54:40.648Z,3.63
2022-07-28T13:57:08.231Z,3.22
2022-07-28T13:59:37.767Z,3.40
2022-07-28T14:02:15.625Z,3.50
2022-07-28T14:04:46.037Z,2.95
2022-07-28T14:07:21.055Z,3.20
2022-07-28T14:09:50.504Z,3.65
2022-07-28T14:12:18.194Z,3.13
2022-07-28T14:14:48.207Z,2.92
2022-07-28T14:20:12.622Z,3.00
2022-07-28T14:22:40.261Z,2.85
2022-07-28T14:25:07.725Z,2.70
2022-07-28T14:27:35.177Z,2.40
2022-07-28T14:30:04.101Z,2.20
2022-07-28T14:32:36.019Z,2.50
2022-07-28T14:35:03.883Z,2.25
2022-07-28T14:37:55.095Z,2.45
2022-07-28T14:40:21.685Z,2.08
2022-07-28T14:42:48.764Z,2.30
2022-07-28T14:45:15.870Z,2.33
2022-07-28T14:47:44.877Z,2.17
2022-07-28T14:50:12.927Z,2.20
2022-07-28T14:52:39.918Z,2.60
2022-07-28T14:55:07.837Z,2.70
2022-07-28T14:57:50.246Z,2.33
2022-07-28T15:00:30.697Z,2.63
2022-07-28T15:02:58.331Z,2.70
2022-07-28T15:05:25.914Z,2.40
2022-07-28T15:07:54.339Z,2.25
2022-07-28T15:10:23.932Z,2.72
2022-07-28T15:12:52.047Z,2.50
2022-07-28T15:15:21.249Z,2.45
2022-07-28T15:17:49.069Z,2.70
2022-07-28T15:20:16.583Z,2.80
2022-07-28T15:22:44.132Z,2.72
2022-07-28T15:25:11.115Z,3.10
2022-07-28T15:27:42.916Z,2.60
2022-07-28T15:30:13.285Z,2.88
2022-07-28T15:32:56.013Z,2.50
2022-07-28T15:35:59.363Z,3.13
2022-07-28T15:38:18.050Z,2.90
2022-07-28T15:40:49.920Z,3.08
2022-07-28T15:43:19.491Z,3.28
2022-07-28T15:45:51.264Z,3.05
2022-07-28T15:48:18.250Z,2.70
2022-07-28T15:50:48.546Z,2.97
2022-07-28T15:53:16.828Z,3.28
2022-07-28T15:55:48.969Z,3.30
2022-07-28T15:58:18.066Z,2.92
2022-07-28T16:00:46.037Z,3.50
2022-07-28T16:03:13.319Z,3.05
2022-07-28T16:05:41.248Z,3.25
2022-07-28T16:08:08.202Z,3.30
2022-07-28T16:10:35.505Z,3.10
2022-07-28T16:13:02.766Z,3.08
2022-07-28T16:15:29.744Z,3.00
2022-07-28T16:17:58.003Z,2.85
2022-07-28T16:20:25.379Z,3.22
2022-07-28T16:22:52.582Z,3.20
2022-07-28T16:25:20.761Z,2.47
2022-07-28T16:27:48.508Z,3.20
2022-07-28T16:30:17.518Z,2.42
2022-07-28T16:32:45.500Z,3.00
2022-07-28T16:35:15.623Z,2.85
2022-07-28T16:37:43.099Z,2.92
2022-07-28T16:40:11.673Z,2.85
2022-07-28T16:42:39.104Z,2.92
2022-07-28T16:45:06.795Z,2.88
2022-07-28T16:47:33.859Z,2.80
2022-07-28T16:50:01.119Z,3.38
2022-07-28T16:52:30.227Z,2.92
2022-07-28T16:54:57.290Z,3.20
2022-07-28T16:57:24.697Z,3.30
2022-07-28T16:59:51.890Z,2.83
2022-07-28T17:02:19.654Z,3.22
2022-07-28T17:04:47.809Z,3.33
2022-07-28T17:07:15.224Z,2.97
2022-07-28T17:09:42.367Z,2.80
2022-07-28T17:12:12.095Z,3.15
2022-07-28T17:14:39.408Z,3.25
2022-07-28T17:17:06.531Z,2.97
2022-07-28T17:19:34.757Z,3.00
2022-07-28T17:22:05.304Z,2.75
2022-07-28T17:24:32.472Z,2.90
2022-07-28T17:29:46.988Z,2.60
2022-07-28T17:32:14.389Z,3.10
2022-07-28T17:34:41.634Z,3.10
2022-07-28T17:37:08.703Z,3.92
2022-07-28T17:39:36.672Z,4.18
2022-07-28T17:42:04.107Z,3.40
2022-07-28T17:44:31.499Z,4.10
2022-07-28T17:47:01.554Z,3.53
2022-07-28T17:49:30.506Z,3.40
2022-07-28T17:51:58.191Z,2.83
2022-07-28T17:54:27.660Z,3.20
2022-07-28T17:56:57.448Z,3.38
2022-07-28T17:59:24.648Z,2.95
2022-07-28T18:02:01.618Z,2.80
2022-07-28T18:04:28.833Z,3.20
2022-07-28T18:06:56.103Z,3.22
2022-07-28T18:09:23.934Z,2.85
2022-07-28T18:11:56.005Z,2.70
2022-07-28T18:14:27.855Z,2.83
2022-07-28T18:16:55.480Z,2.75
2022-07-28T18:19:22.725Z,2.55
2022-07-28T18:21:52.007Z,2.92
2022-07-28T18:24:22.099Z,2.92
2022-07-28T18:26:50.801Z,2.53
2022-07-28T18:29:19.312Z,2.90
2022-07-28T18:31:47.170Z,3.30
2022-07-28T18:34:15.874Z,2.63
2022-07-28T18:36:44.486Z,3.10
2022-07-28T18:39:14.870Z,2.97
2022-07-28T18:41:47.334Z,3.00
2022-07-28T18:44:18.574Z,3.43
2022-07-28T18:46:46.775Z,4.18
2022-07-28T18:49:14.121Z,4.00
2022-07-28T18:51:44.023Z,3.33
2022-07-28T18:54:21.487Z,3.08
2022-07-28T18:56:53.954Z,3.22
2022-07-28T18:59:21.763Z,3.65
2022-07-28T19:01:49.849Z,2.95
2022-07-28T19:04:17.434Z,3.40
2022-07-28T19:06:44.994Z,3.70
2022-07-28T19:09:12.045Z,3.03
2022-07-28T19:11:45.329Z,2.85
2022-07-28T19:14:14.958Z,3.10
2022-07-28T19:16:42.462Z,2.95
2022-07-28T19:19:09.728Z,2.78
2022-07-28T19:21:36.911Z,3.05
2022-07-28T19:24:04.287Z,3.47
2022-07-28T19:26:31.356Z,3.00
2022-07-28T19:29:08.596Z,3.22
2022-07-28T19:31:35.763Z,3.17
2022-07-28T19:34:04.700Z,4.22
2022-07-28T19:36:32.126Z,3.38
2022-07-28T19:38:59.109Z,3.45
2022-07-28T19:41:26.434Z,3.17
2022-07-28T19:43:56.227Z,4.00
2022-07-28T19:46:24.947Z,3.53
2022-07-28T19:49:01.361Z,3.85
2022-07-28T19:51:28.573Z,4.07
2022-07-28T19:53:59.609Z,4.50
2022-07-28T19:56:31.397Z,3.85
2022-07-28T19:58:59.208Z,4.72
2022-07-28T20:01:27.604Z,3.47
2022-07-28T20:04:03.629Z,4.40
2022-07-28T20:06:32.856Z,3.83
2022-07-28T20:09:07.032Z,4.10
2022-07-28T20:11:37.059Z,4.30
2022-07-28T20:14:05.782Z,4.00
2022-07-28T20:16:34.034Z,4.13
2022-07-28T20:19:04.132Z,4.63
2022-07-28T20:21:51.319Z,52.72
2022-07-28T20:24:21.754Z,6.00
2022-07-28T20:26:48.658Z,5.10
2022-07-28T20:29:22.592Z,5.10
2022-07-28T20:31:49.768Z,6.05
2022-07-28T20:34:21.721Z,5.25
2022-07-28T20:36:50.888Z,4.90
2022-07-28T20:39:43.363Z,5.82
2022-07-28T20:42:07.928Z,5.68
2022-07-28T20:44:35.287Z,4.47
2022-07-28T20:47:04.507Z,5.63
2022-07-28T20:49:31.966Z,5.40
2022-07-28T20:51:59.124Z,5.30
2022-07-28T20:54:27.743Z,5.30
2022-07-28T20:56:55.155Z,5.05
2022-07-28T20:59:27.473Z,5.35
2022-07-28T21:01:55.631Z,5.00
2022-07-28T21:04:24.473Z,5.05
2022-07-28T21:06:54.313Z,5.65
2022-07-28T21:09:23.905Z,4.60
2022-07-28T21:11:50.893Z,4.95
2022-07-28T21:14:26.970Z,4.97
2022-07-28T21:16:54.964Z,4.80
2022-07-28T21:19:22.079Z,5.32
2022-07-28T21:21:49.004Z,5.03
2022-07-28T21:24:16.634Z,5.07
2022-07-28T21:26:43.966Z,5.60
2022-07-28T21:29:12.513Z,5.32
2022-07-28T21:32:03.732Z,5.25
2022-07-28T21:34:28.708Z,5.50
2022-07-28T21:36:56.255Z,5.65
2022-07-28T21:39:23.308Z,5.70
2022-07-28T21:41:50.266Z,6.22
2022-07-28T21:44:18.040Z,5.57
2022-07-28T21:46:45.838Z,5.40
2022-07-28T21:49:13.215Z,6.72
2022-07-28T21:51:49.629Z,9.45
2022-07-28T21:54:16.997Z,9.75
2022-07-28T21:56:44.416Z,11.15
2022-07-28T21:59:11.418Z,8.88
2022-07-28T22:01:39.639Z,9.43
2022-07-28T22:04:06.998Z,9.80
2022-07-28T22:06:33.900Z,10.38
2022-07-28T22:09:00.857Z,11.57
2022-07-28T22:11:28.070Z,11.20
2022-07-28T22:13:55.394Z,11.10
2022-07-28T22:16:22.940Z,13.55
2022-07-28T22:18:50.322Z,12.55
2022-07-28T22:21:17.372Z,13.93
2022-07-28T22:23:45.473Z,13.02
2022-07-28T22:26:12.861Z,12.60
2022-07-28T22:28:41.322Z,12.48
2022-07-28T22:31:10.104Z,12.25
2022-07-28T22:33:38.871Z,9.93
2022-07-28T22:36:07.189Z,10.15
2022-07-28T22:38:34.148Z,9.05
2022-07-28T22:41:01.431Z,10.13
2022-07-28T22:43:28.437Z,8.88
2022-07-28T22:45:55.552Z,10.52
2022-07-28T22:48:22.940Z,10.23
2022-07-28T22:50:49.975Z,9.80
2022-07-28T22:53:16.871Z,9.93
2022-07-28T22:58:28.633Z,11.85
2022-07-28T23:00:58.336Z,10.60
2022-07-28T23:03:26.144Z,10.65
2022-07-28T23:06:00.721Z,9.75
2022-07-28T23:08:28.211Z,10.00
2022-07-28T23:10:55.719Z,9.65
2022-07-28T23:13:24.415Z,9.70
2022-07-28T23:15:51.829Z,9.15
2022-07-28T23:18:18.826Z,7.53
2022-07-28T23:20:46.005Z,6.88
2022-07-28T23:23:14.960Z,7.32
2022-07-28T23:25:50.327Z,8.60
2022-07-28T23:28:24.146Z,8.88
2022-07-28T23:30:52.032Z,10.57
2022-07-28T23:33:54.473Z,9.80
2022-07-28T23:36:16.868Z,10.70
2022-07-28T23:38:53.479Z,10.90
2022-07-28T23:41:20.803Z,10.07
2022-07-28T23:43:47.878Z,10.60
2022-07-28T23:46:14.948Z,10.02
2022-07-28T23:48:43.533Z,10.75
2022-07-28T23:51:10.586Z,10.18
2022-07-28T23:53:39.151Z,10.27
2022-07-28T23:56:07.138Z,9.95
2022-07-28T23:58:35.013Z,8.63
